Time;durP1;ratioP1;P1;durP2;ratioP2;P2;SDS_P1;SDS_P2;PMS_P1;PMS_P2;Temp;Humidity;BMP_temperature;BMP_pressure;BME280_temperature;BME280_humidity;BME280_pressure;Samples;Min_cycle;Max_cycle;Signal;HPM_P1;HPM_P2
2024/02/10 00:00:32;;;;;;;;;13.00;11.67;;;;;11.42;100.00;97856.66;6277193;20;3519113;-42
2024/02/10 00:03:02;;;;;;;;;19.00;15.00;;;;;11.22;100.00;97855.03;6311894;20;3540887;-43
2024/02/10 00:05:30;;;;;;;;;18.00;15.00;;;;;11.23;100.00;97851.34;6281267;20;2824255;-42
2024/02/10 00:07:58;;;;;;;;;16.00;16.00;;;;;11.27;100.00;97857.25;6283056;20;2821152;-41
2024/02/10 00:10:27;;;;;;;;;19.00;16.50;;;;;11.36;100.00;97856.41;6282785;20;2825274;-43
2024/02/10 00:13:00;;;;;;;;;17.33;16.00;;;;;11.32;100.00;97855.88;6280301;20;2831629;-42
2024/02/10 00:15:28;;;;;;;;;16.00;15.50;;;;;11.29;100.00;97858.81;6309210;20;2491959;-42
2024/02/10 00:17:56;;;;;;;;;22.00;14.50;;;;;11.32;100.00;97861.22;6274349;20;2500398;-43
2024/02/10 00:20:25;;;;;;;;;12.00;11.33;;;;;11.35;100.00;97860.09;6275868;20;3546204;-43
2024/02/10 00:22:56;;;;;;;;;16.67;13.67;;;;;11.25;100.00;97859.25;6276813;20;3539847;-41
2024/02/10 00:25:24;;;;;;;;;22.50;17.00;;;;;11.45;100.00;97860.91;6310923;20;2840072;-41
2024/02/10 00:27:53;;;;;;;;;16.00;14.00;;;;;11.35;100.00;97860.09;6277435;20;3528444;-40
2024/02/10 00:30:23;;;;;;;;;16.00;16.00;;;;;11.34;100.00;97861.06;6278368;20;3548188;-41
2024/02/10 00:32:52;;;;;;;;;16.00;13.67;;;;;11.27;100.00;97862.63;6308980;20;3544235;-41
2024/02/10 00:35:22;;;;;;;;;17.67;16.00;;;;;11.15;100.00;97860.09;6279417;20;3553429;-41
2024/02/10 00:37:53;;;;;;;;;18.33;15.67;;;;;11.43;100.00;97857.53;6277758;20;3545072;-40
2024/02/10 00:40:22;;;;;;;;;19.00;17.00;;;;;11.20;100.00;97857.00;6277718;20;3566901;-41
2024/02/10 00:42:52;;;;;;;;;16.00;13.00;;;;;11.15;100.00;97853.91;6276111;20;3533812;-40
2024/02/10 00:45:21;;;;;;;;;22.50;17.50;;;;;11.27;100.00;97854.56;6306701;20;2492709;-42
2024/02/10 00:47:52;;;;;;;;;20.33;16.00;;;;;11.23;100.00;97862.09;6275244;20;3577402;-41
2024/02/10 00:50:20;;;;;;;;;16.00;16.00;;;;;11.12;100.00;97865.78;6279436;20;2827762;-41
2024/02/10 00:52:49;;;;;;;;;16.67;15.00;;;;;11.02;100.00;97858.72;6278809;20;3535005;-40
2024/02/10 00:55:27;;;;;;;;;19.00;18.00;;;;;10.96;100.00;97860.13;6308369;20;2832571;-42
2024/02/10 00:58:03;;;;;;;;;17.67;16.00;;;;;11.07;100.00;97862.66;6278917;20;2830621;-42
2024/02/10 01:00:32;;;;;;;;;20.00;15.33;;;;;11.02;100.00;97870.31;6307900;20;3553367;-42
2024/02/10 01:03:02;;;;;;;;;15.00;14.67;;;;;11.08;100.00;97860.81;6276019;20;3539885;-43
2024/02/10 01:05:31;;;;;;;;;17.33;16.33;;;;;10.91;100.00;97867.78;6308281;20;3562780;-42
2024/02/10 01:07:59;;;;;;;;;17.00;17.00;;;;;10.95;100.00;97863.78;6277711;20;2498845;-42
2024/02/10 01:10:30;;;;;;;;;20.33;15.00;;;;;10.87;100.00;97858.28;6278678;20;3549286;-43
2024/02/10 01:13:03;;;;;;;;;15.50;15.00;;;;;10.71;100.00;97857.00;6308983;20;2810734;-41
2024/02/10 01:15:32;;;;;;;;;19.00;17.00;;;;;10.79;100.00;97852.78;6276640;20;2491912;-43
2024/02/10 01:18:02;;;;;;;;;18.67;16.00;;;;;10.84;100.00;97847.84;6275931;20;3551281;-43
2024/02/10 01:20:31;;;;;;;;;19.00;16.33;;;;;10.67;100.00;97844.88;6276083;20;3560688;-42
2024/02/10 01:22:59;;;;;;;;;19.00;19.00;;;;;10.88;100.00;97841.22;6274304;20;2500465;-43
2024/02/10 01:25:30;;;;;;;;;17.50;14.50;;;;;10.97;100.00;97840.34;6274390;20;2498198;-41
2024/02/10 01:28:00;;;;;;;;;17.00;17.00;;;;;10.97;100.00;97840.34;6276464;20;2496133;-43
2024/02/10 01:30:29;;;;;;;;;19.50;18.00;;;;;10.98;100.00;97837.53;6274872;20;2491949;-44
2024/02/10 01:32:57;;;;;;;;;18.50;17.00;;;;;11.09;100.00;97833.00;6276363;20;2500429;-42
2024/02/10 01:35:27;;;;;;;;;20.00;18.00;;;;;11.07;100.00;97840.34;6274826;20;2491990;-44
2024/02/10 01:37:55;;;;;;;;;13.00;11.67;;;;;11.11;100.00;97831.84;6278451;20;2797261;-42
2024/02/10 01:40:24;;;;;;;;;19.00;19.00;;;;;11.12;100.00;97830.84;6308079;20;2834671;-41
2024/02/10 01:42:55;;;;;;;;;20.00;17.00;;;;;11.13;100.00;97819.09;6275676;20;2828546;-41
2024/02/10 01:45:23;;;;;;;;;17.50;17.50;;;;;11.15;100.00;97827.03;6277578;20;2826407;-41
2024/02/10 01:47:51;;;;;;;;;20.00;16.00;;;;;11.10;100.00;97819.41;6278062;20;2838844;-41
2024/02/10 01:50:20;;;;;;;;;18.00;17.00;;;;;11.07;100.00;97818.84;6277174;20;3565358;-41
2024/02/10 01:52:49;;;;;;;;;19.50;18.00;;;;;11.02;100.00;97816.59;6273514;20;2500303;-41
2024/02/10 01:55:18;;;;;;;;;20.00;18.50;;;;;11.12;100.00;97812.06;6275149;20;2837804;-41
2024/02/10 01:58:04;;;;;;;;;20.00;17.50;;;;;11.25;100.00;97810.91;6272149;20;2494042;-41
2024/02/10 02:00:33;;;;;;;;;17.00;14.67;;;;;11.13;100.00;97803.00;6277060;20;3548282;-41
2024/02/10 02:03:01;;;;;;;;;16.50;15.50;;;;;11.01;100.00;97809.53;6273358;20;2494015;-42
2024/02/10 02:05:32;;;;;;;;;18.33;16.00;;;;;11.15;100.00;97811.75;6276743;20;3557569;-42
2024/02/10 02:08:02;;;;;;;;;20.33;15.67;;;;;11.06;100.00;97806.41;6275945;20;3553463;-42
2024/02/10 02:10:34;;;;;;;;;16.00;16.00;;;;;11.18;99.89;97800.72;6270361;20;3557624;-43
2024/02/10 02:13:05;;;;;;;;;17.00;17.00;;;;;11.28;98.81;97805.25;6277170;20;3565100;-41
2024/02/10 02:15:33;;;;;;;;;19.00;16.00;;;;;11.18;98.48;97799.88;6275810;20;2500287;-43
2024/02/10 02:18:02;;;;;;;;;18.00;17.50;;;;;11.24;98.44;97803.81;6272748;20;2839870;-42
2024/02/10 02:20:30;;;;;;;;;17.00;16.00;;;;;11.20;98.43;97804.13;6273135;20;2496143;-41
2024/02/10 02:23:00;;;;;;;;;16.33;16.33;;;;;11.08;99.08;97799.06;6272992;20;3560703;-43
2024/02/10 02:25:30;;;;;;;;;15.67;14.00;;;;;11.06;98.59;97796.53;6277631;20;3536772;-42
2024/02/10 02:27:58;;;;;;;;;17.00;17.00;;;;;11.15;99.14;97795.66;6274797;20;2824319;-41
2024/02/10 02:30:27;;;;;;;;;18.33;16.00;;;;;11.23;98.77;97789.56;6274153;20;3563921;-42
2024/02/10 02:32:55;;;;;;;;;14.00;13.00;;;;;11.23;99.17;97791.41;6281407;20;2797174;-42
2024/02/10 02:35:24;;;;;;;;;15.67;12.00;;;;;11.06;100.00;97785.78;6274716;20;2796155;-42
2024/02/10 02:37:53;;;;;;;;;17.00;15.00;;;;;11.17;99.48;97782.94;6306928;20;2812838;-44
2024/02/10 02:40:25;;;;;;;;;14.00;14.00;;;;;11.14;98.19;97783.22;6274680;20;3535695;-43
2024/02/10 02:42:55;;;;;;;;;14.00;12.67;;;;;11.07;97.36;97778.56;6307536;20;3535776;-39
2024/02/10 02:45:24;;;;;;;;;20.67;15.00;;;;;11.15;97.87;97776.00;6306144;20;3554446;-42
2024/02/10 02:47:54;;;;;;;;;17.67;12.67;;;;;11.25;96.02;97782.19;6274441;20;3535689;-43
2024/02/10 02:50:24;;;;;;;;;17.00;16.00;;;;;11.14;96.00;97777.84;6302546;20;2831534;-42
2024/02/10 02:52:53;;;;;;;;;16.50;13.50;;;;;11.18;94.76;97775.72;6275860;20;2810698;-40
2024/02/10 02:55:22;;;;;;;;;16.00;16.00;;;;;11.24;95.55;97779.66;6276040;20;3556463;-40
2024/02/10 02:57:51;;;;;;;;;17.00;17.00;;;;;11.12;96.04;97773.63;6272526;20;2494924;-43
2024/02/10 03:00:20;;;;;;;;;14.33;13.67;;;;;11.07;95.28;97778.56;6276099;20;3538845;-40
2024/02/10 03:02:49;;;;;;;;;16.67;15.67;;;;;11.08;95.68;97775.72;6307967;20;3551464;-40
2024/02/10 03:05:17;;;;;;;;;18.00;16.00;;;;;10.94;96.21;97781.56;6276933;20;2822128;-40
2024/02/10 03:07:46;;;;;;;;;17.00;15.00;;;;;11.11;96.36;97778.16;6276098;20;3544023;-41
2024/02/10 03:10:16;;;;;;;;;19.00;18.33;;;;;11.04;96.39;97770.81;6273777;20;3570038;-41
2024/02/10 03:12:46;;;;;;;;;19.00;15.50;;;;;11.02;97.81;97768.25;6273451;20;2496140;-42
2024/02/10 03:15:14;;;;;;;;;14.50;13.50;;;;;10.92;97.51;97772.78;6278035;20;2808644;-44
2024/02/10 03:17:46;;;;;;;;;17.00;16.00;;;;;10.91;97.47;97771.94;6275438;20;2500390;-42
2024/02/10 03:20:23;;;;;;;;;14.00;14.00;;;;;10.87;97.42;97767.00;6274569;20;3539487;-42
2024/02/10 03:23:01;;;;;;;;;20.00;17.00;;;;;10.96;97.96;97772.38;6275980;20;3566916;-42
2024/02/10 03:25:31;;;;;;;;;21.00;18.50;;;;;10.90;97.64;97769.41;6283029;20;2832572;-42
2024/02/10 03:28:03;;;;;;;;;18.33;16.00;;;;;10.89;96.90;97765.03;6286676;20;3559836;-44
2024/02/10 03:30:31;;;;;;;;;17.00;16.00;;;;;10.79;97.68;97767.72;6285511;20;2821192;-41
2024/02/10 03:33:01;;;;;;;;;16.00;16.00;;;;;10.88;96.94;97766.03;6288121;20;2822237;-41
2024/02/10 03:35:32;;;;;;;;;15.00;15.00;;;;;10.94;96.82;97758.22;6287728;20;2803447;-41
2024/02/10 03:38:01;;;;;;;;;17.00;16.00;;;;;10.72;97.00;97762.09;6288939;20;2821045;-44
2024/02/10 03:40:29;;;;;;;;;17.50;16.00;;;;;10.85;96.28;97760.91;6284559;20;2494048;-42
2024/02/10 03:42:58;;;;;;;;;18.00;16.00;;;;;10.81;95.84;97754.16;6286877;20;3564880;-42
2024/02/10 03:45:33;;;;;;;;;17.67;14.33;;;;;10.90;95.63;97753.28;6286638;20;3541953;-41
2024/02/10 03:48:05;;;;;;;;;18.33;14.67;;;;;10.87;95.26;97753.59;6316751;20;3544058;-45
2024/02/10 03:50:33;;;;;;;;;15.00;15.00;;;;;10.84;96.05;97756.56;6287912;20;2816932;-41
2024/02/10 03:53:01;;;;;;;;;16.00;16.00;;;;;10.92;93.83;97754.84;6290788;20;2814830;-43
2024/02/10 03:55:29;;;;;;;;;16.00;12.67;;;;;11.01;92.74;97755.84;6283475;20;2806687;-41
2024/02/10 03:57:59;;;;;;;;;12.00;12.00;;;;;10.95;91.85;97746.53;6320193;20;2806592;-41
2024/02/10 04:00:28;;;;;;;;;13.00;13.00;;;;;10.87;92.61;97749.06;6288926;20;2812882;-41
2024/02/10 04:02:56;;;;;;;;;15.00;13.00;;;;;10.98;92.54;97750.75;6285821;20;2803457;-42
2024/02/10 04:05:33;;;;;;;;;13.67;13.67;;;;;11.03;92.16;97750.28;6286955;20;3529478;-43
2024/02/10 04:08:03;;;;;;;;;13.50;12.50;;;;;11.21;90.29;97749.38;6319322;20;2797222;-42
2024/02/10 04:10:31;;;;;;;;;13.50;12.00;;;;;11.23;90.30;97749.25;6287732;20;2810016;-43
2024/02/10 04:13:02;;;;;;;;;12.50;11.00;;;;;11.28;89.31;97748.81;6284077;20;2788916;-42
2024/02/10 04:15:31;;;;;;;;;12.67;10.67;;;;;11.15;89.40;97741.09;6286328;20;2789992;-42
2024/02/10 04:18:01;;;;;;;;;13.00;13.00;;;;;11.35;88.17;97729.28;6318911;20;2805519;-42
2024/02/10 04:20:29;;;;;;;;;14.50;13.00;;;;;11.20;89.60;97718.16;6285773;20;2800343;-43
2024/02/10 04:22:59;;;;;;;;;12.50;11.50;;;;;11.26;88.61;97722.09;6287348;20;2794109;-44
2024/02/10 04:25:33;;;;;;;;;0.00;0.00;;;;;11.13;88.77;97719.72;6324907;20;2694041;-42
2024/02/10 04:28:02;;;;;;;;;14.00;12.67;;;;;11.13;89.57;97719.72;6288848;20;2788882;-42
2024/02/10 04:30:31;;;;;;;;;16.00;11.00;;;;;10.99;89.62;97712.16;6314268;20;2793116;-44
2024/02/10 04:32:59;;;;;;;;;12.50;12.50;;;;;10.94;90.00;97717.97;6321334;20;2819154;-44
2024/02/10 04:35:28;;;;;;;;;13.00;13.00;;;;;11.12;89.33;97714.53;6280427;20;3537810;-42
2024/02/10 04:38:01;;;;;;;;;13.80;12.00;;;;;11.17;89.47;97718.47;6332647;20;2794124;-44
2024/02/10 04:40:29;;;;;;;;;13.00;13.00;;;;;11.19;88.31;97715.63;6283692;20;2805529;-45
2024/02/10 04:42:58;;;;;;;;;13.00;13.00;;;;;11.05;89.63;97719.63;6277235;20;3524346;-44
2024/02/10 04:45:32;;;;;;;;;12.50;12.00;;;;;11.10;88.07;97711.97;6310055;20;2790933;-44
2024/02/10 04:48:08;;;;;;;;;12.50;11.50;;;;;11.31;87.29;97719.81;6283262;20;2791973;-44
2024/02/10 04:50:36;;;;;;;;;9.00;9.00;;;;;11.48;88.60;97714.66;6283028;20;2746079;-41
2024/02/10 04:53:07;;;;;;;;;14.00;12.00;;;;;11.27;86.34;97704.13;6274597;20;2791937;-40
2024/02/10 04:55:41;;;;;;;;;10.60;10.20;;;;;11.28;86.55;97708.53;6303670;20;2791957;-43
2024/02/10 04:58:12;;;;;;;;;15.00;9.00;;;;;11.30;86.38;97719.97;6278507;20;2775329;-41
2024/02/10 05:00:41;;;;;;;;;11.00;10.50;;;;;11.20;86.62;97715.47;6281801;20;2792040;-41
2024/02/10 05:03:09;;;;;;;;;14.00;10.00;;;;;11.05;88.02;97719.63;6277692;20;2785734;-41
2024/02/10 05:05:37;;;;;;;;;11.00;11.00;;;;;11.21;87.35;97719.00;6278632;20;2791999;-44
2024/02/10 05:08:06;;;;;;;;;14.50;12.50;;;;;11.09;87.35;97715.66;6282514;20;2803500;-42
2024/02/10 05:10:34;;;;;;;;;10.00;8.00;;;;;11.16;86.80;97716.78;6277511;20;2769047;-41
2024/02/10 05:13:03;;;;;;;;;11.67;10.67;;;;;11.16;86.50;97714.09;6278392;20;2790980;-42
2024/02/10 05:15:33;;;;;;;;;12.40;9.00;;;;;11.03;87.70;97718.91;6335494;20;2773613;-41
2024/02/10 05:18:05;;;;;;;;;14.00;11.00;;;;;11.04;87.07;97717.09;6277125;20;2782539;-41
2024/02/10 05:20:35;;;;;;;;;10.50;9.00;;;;;10.93;88.60;97713.59;6309121;20;2756556;-40
2024/02/10 05:23:02;;;;;;;;;7.00;7.00;;;;;10.77;89.38;97708.81;6282266;20;2732588;-41
2024/02/10 05:25:34;;;;;;;;;11.50;10.50;;;;;10.94;88.45;97719.81;6309379;20;2791969;-42
2024/02/10 05:28:07;;;;;;;;;14.00;10.33;;;;;11.04;87.48;97717.94;6279553;20;2789860;-41
2024/02/10 05:30:35;;;;;;;;;13.50;11.00;;;;;10.77;89.17;97703.47;6313741;20;2782702;-41
2024/02/10 05:33:04;;;;;;;;;9.00;9.00;;;;;10.83;88.60;97704.72;6278472;20;2755504;-42
2024/02/10 05:35:33;;;;;;;;;12.00;11.00;;;;;10.89;88.17;97703.28;6276066;20;2790910;-41
2024/02/10 05:38:03;;;;;;;;;12.40;10.00;;;;;10.76;88.38;97712.47;6299200;20;2788844;-43
2024/02/10 05:40:32;;;;;;;;;8.50;8.50;;;;;10.92;88.40;97702.97;6282013;20;2737775;-42
2024/02/10 05:43:04;;;;;;;;;11.00;10.50;;;;;11.12;86.00;97704.63;6306116;20;2791995;-41
2024/02/10 05:45:34;;;;;;;;;11.67;9.00;;;;;11.24;85.79;97701.75;6276708;20;2761728;-41
2024/02/10 05:48:04;;;;;;;;;12.50;10.50;;;;;11.31;85.29;97702.84;6307372;20;2793115;-41
2024/02/10 05:50:32;;;;;;;;;10.00;9.00;;;;;11.21;85.96;97708.25;6278523;20;2747129;-40
2024/02/10 05:53:00;;;;;;;;;9.00;9.00;;;;;11.39;85.26;97719.06;6282131;20;2760822;-45
2024/02/10 05:55:30;;;;;;;;;9.00;9.00;;;;;11.40;84.25;97710.88;6278796;20;2744126;-41
2024/02/10 05:58:01;;;;;;;;;9.00;7.00;;;;;11.26;85.51;97710.50;6280159;20;2739971;-42
2024/02/10 06:00:32;;;;;;;;;12.33;11.67;;;;;11.37;84.50;97705.81;6274082;20;2788868;-43
2024/02/10 06:03:04;;;;;;;;;10.50;9.00;;;;;11.37;83.98;97704.94;6308538;20;2775319;-41
2024/02/10 06:05:32;;;;;;;;;11.50;8.50;;;;;11.39;83.62;97708.34;6286192;20;2762798;-43
2024/02/10 06:08:02;;;;;;;;;9.00;7.00;;;;;11.44;83.52;97719.47;6279779;20;2739292;-44
2024/02/10 06:10:31;;;;;;;;;10.50;8.50;;;;;11.50;83.61;97718.03;6278060;20;2769031;-40
2024/02/10 06:13:01;;;;;;;;;10.20;9.20;;;;;11.44;84.12;97724.84;6300152;20;2774240;-41
2024/02/10 06:15:29;;;;;;;;;13.00;11.00;;;;;11.55;83.19;97721.97;6277669;20;2791986;-41
2024/02/10 06:18:03;;;;;;;;;12.67;10.33;;;;;11.47;84.01;97721.88;6305707;20;2796192;-42
2024/02/10 06:20:32;;;;;;;;;7.50;7.50;;;;;11.63;82.35;97707.78;6316252;20;2739845;-42
2024/02/10 06:23:01;;;;;;;;;9.50;9.50;;;;;11.58;82.72;97705.53;6275012;20;2764043;-42
2024/02/10 06:25:29;;;;;;;;;12.50;9.00;;;;;11.57;83.14;97714.59;6279377;20;2760765;-41
2024/02/10 06:27:59;;;;;;;;;10.50;9.00;;;;;11.68;82.30;97726.16;6276352;20;2756525;-41
2024/02/10 06:30:33;;;;;;;;;7.00;7.00;;;;;11.94;80.56;97711.03;6281609;20;2734809;-42
2024/02/10 06:33:05;;;;;;;;;10.00;10.00;;;;;11.70;80.99;97719.63;6271916;20;2791970;-40
2024/02/10 06:35:36;;;;;;;;;11.00;8.50;;;;;11.78;81.07;97722.41;6305877;20;2768000;-41
2024/02/10 06:38:04;;;;;;;;;7.50;7.00;;;;;11.89;80.16;97721.38;6279371;20;2744120;-42
2024/02/10 06:40:37;;;;;;;;;7.50;7.50;;;;;11.92;80.15;97717.56;6276999;20;2737792;-42
2024/02/10 06:43:05;;;;;;;;;10.00;10.00;;;;;12.01;79.67;97722.88;6270950;20;2789899;-42
2024/02/10 06:45:36;;;;;;;;;11.50;10.00;;;;;11.90;80.33;97720.41;6275188;20;2788952;-41
2024/02/10 06:48:05;;;;;;;;;8.00;8.00;;;;;11.85;80.88;97710.06;6276833;20;2743021;-41
2024/02/10 06:50:35;;;;;;;;;8.00;8.00;;;;;12.59;79.18;97721.56;6273259;20;2754464;-42
2024/02/10 06:53:06;;;;;;;;;11.00;11.00;;;;;12.27;78.97;97728.34;6271301;20;2784726;-42
2024/02/10 06:55:36;;;;;;;;;9.50;9.00;;;;;12.17;79.82;97722.19;6300545;20;2766992;-42
2024/02/10 06:58:06;;;;;;;;;12.60;11.20;;;;;12.28;79.19;97724.66;6295156;20;2784750;-41
2024/02/10 07:00:40;;;;;;;;;9.50;9.00;;;;;14.61;67.97;97730.94;6275960;20;2749258;-41
2024/02/10 07:03:09;;;;;;;;;8.50;8.00;;;;;15.26;64.13;97730.88;6277863;20;2753442;-44
2024/02/10 07:05:39;;;;;;;;;11.00;11.00;;;;;16.07;60.38;97731.63;6275520;20;2788818;-39
2024/02/10 07:08:11;;;;;;;;;9.00;8.00;;;;;17.19;55.89;97731.13;6273085;20;2761741;-39
2024/02/10 07:10:39;;;;;;;;;7.00;7.00;;;;;17.96;53.28;97747.13;6276980;20;2729474;-39
2024/02/10 07:13:07;;;;;;;;;10.00;9.00;;;;;18.42;51.64;97754.97;6274884;20;2761716;-40
2024/02/10 07:15:36;;;;;;;;;10.33;7.33;;;;;18.63;50.20;97754.97;6276117;20;2764866;-39
2024/02/10 07:18:07;;;;;;;;;8.00;8.00;;;;;18.25;51.46;97751.66;6327962;20;2749252;-39
2024/02/10 07:20:35;;;;;;;;;7.50;7.50;;;;;19.39;49.45;97754.44;6270756;20;2744131;-41
2024/02/10 07:23:06;;;;;;;;;11.20;7.40;;;;;19.74;46.82;97757.19;6295887;20;2764869;-41
2024/02/10 07:25:38;;;;;;;;;17.00;7.67;;;;;19.88;47.33;97750.81;6271565;20;2792990;-42
2024/02/10 07:28:11;;;;;;;;;9.60;8.40;;;;;19.77;47.54;97758.69;6329382;20;2757592;-41
2024/02/10 07:30:42;;;;;;;;;9.33;7.00;;;;;20.20;46.06;97756.63;6270559;20;2762984;-42
2024/02/10 07:33:13;;;;;;;;;10.60;8.60;;;;;20.87;46.07;97778.66;6326169;20;2777433;-41
2024/02/10 07:35:43;;;;;;;;;7.50;6.00;;;;;20.21;46.44;97766.47;6276403;20;2742067;-42
2024/02/10 07:38:18;;;;;;;;;9.14;8.14;;;;;19.48;46.21;97766.00;6320884;20;3485742;-40
2024/02/10 07:40:48;;;;;;;;;9.20;8.40;;;;;19.78;45.85;97769.41;6328816;20;2738870;-40
2024/02/10 07:43:18;;;;;;;;;10.80;7.80;;;;;19.08;47.79;97769.25;6299379;20;2771131;-41
2024/02/10 07:45:48;;;;;;;;;10.80;8.00;;;;;18.39;49.16;97763.50;6299134;20;2761731;-43
2024/02/10 07:48:19;;;;;;;;;8.20;8.20;;;;;14.65;60.04;97762.84;6296923;20;2756535;-40
2024/02/10 07:50:47;;;;;;;;;6.00;5.00;;;;;14.55;61.71;97754.06;6306306;20;2741935;-40
2024/02/10 07:53:15;;;;;;;;;11.50;9.00;;;;;14.74;63.09;97768.25;6273161;20;2767969;-40
2024/02/10 07:55:46;;;;;;;;;7.50;7.50;;;;;14.68;63.52;97767.91;6279651;20;2749384;-40
2024/02/10 07:58:15;;;;;;;;;7.00;7.00;;;;;14.33;63.64;97760.09;6278837;20;2737827;-40
2024/02/10 08:00:44;;;;;;;;;9.00;8.00;;;;;15.04;62.06;97762.19;6275038;20;2735733;-40
2024/02/10 08:03:12;;;;;;;;;10.00;9.00;;;;;14.87;63.77;97769.44;6281829;20;2763844;-40
2024/02/10 08:05:42;;;;;;;;;9.00;7.00;;;;;14.82;62.84;97768.25;6285595;20;2740987;-40
2024/02/10 08:08:10;;;;;;;;;10.00;7.50;;;;;15.07;61.67;97788.03;6269011;20;2752516;-40
2024/02/10 08:10:40;;;;;;;;;8.00;7.00;;;;;15.14;62.55;97779.06;6301918;20;2730563;-40
2024/02/10 08:13:12;;;;;;;;;6.57;6.57;;;;;14.99;61.60;97779.91;6355537;20;3449257;-40
2024/02/10 08:15:39;;;;;;;;;9.50;8.00;;;;;15.06;61.92;97784.47;6315950;20;2746121;-39
2024/02/10 08:18:08;;;;;;;;;8.00;7.00;;;;;14.99;61.48;97778.06;6283333;20;2744187;-41
2024/02/10 08:20:40;;;;;;;;;11.00;6.00;;;;;15.06;60.62;97781.78;6279787;20;2766931;-41
2024/02/10 08:23:12;;;;;;;;;4.50;4.50;;;;;15.39;59.18;97779.03;6312930;20;2750286;-40
2024/02/10 08:25:43;;;;;;;;;5.00;5.00;;;;;15.52;59.44;97773.91;6307587;20;2729556;-41
2024/02/10 08:28:11;;;;;;;;;5.50;4.50;;;;;15.80;57.69;97768.13;6308804;20;2743064;-42
2024/02/10 08:30:41;;;;;;;;;7.60;6.60;;;;;15.46;58.98;97774.63;6309673;20;2744069;-40
2024/02/10 08:33:13;;;;;;;;;7.57;6.29;;;;;15.70;58.54;97772.91;6355356;20;3447250;-43
2024/02/10 08:35:41;;;;;;;;;6.50;6.00;;;;;15.73;57.65;97770.69;6310861;20;2748276;-42
2024/02/10 08:38:10;;;;;;;;;7.50;4.00;;;;;16.06;56.84;97769.69;6285289;20;2748214;-41
2024/02/10 08:40:40;;;;;;;;;6.20;5.20;;;;;15.93;57.45;97765.72;6311469;20;2729522;-42
2024/02/10 08:43:08;;;;;;;;;4.00;4.00;;;;;15.99;57.17;97759.59;6314070;20;2750463;-41
2024/02/10 08:45:38;;;;;;;;;6.60;5.20;;;;;16.23;56.25;97765.91;6308428;20;2749250;-42
2024/02/10 08:48:10;;;;;;;;;5.50;5.50;;;;;15.90;56.39;97760.63;6312188;20;2735708;-41
2024/02/10 08:50:41;;;;;;;;;2.50;2.50;;;;;15.85;56.79;97771.16;6286361;20;2740903;-41
2024/02/10 08:53:11;;;;;;;;;3.00;2.00;;;;;16.06;56.49;97775.97;6283848;20;2756709;-42
2024/02/10 08:55:40;;;;;;;;;6.00;4.00;;;;;15.85;56.42;97773.88;6282584;20;2739979;-40
2024/02/10 08:58:08;;;;;;;;;6.00;6.00;;;;;16.00;56.60;97776.66;6285192;20;2745112;-40
2024/02/10 09:00:39;;;;;;;;;6.00;3.40;;;;;16.15;55.89;97779.47;6303279;20;2751349;-41
2024/02/10 09:03:09;;;;;;;;;4.40;4.00;;;;;16.11;55.07;97773.56;6336702;20;2753393;-41
2024/02/10 09:05:38;;;;;;;;;4.00;4.00;;;;;16.53;54.57;97774.16;6282988;20;2751330;-43
2024/02/10 09:08:06;;;;;;;;;5.00;4.00;;;;;16.88;53.39;97775.50;6283271;20;2756544;-40
2024/02/10 09:10:34;;;;;;;;;3.50;3.50;;;;;16.54;53.20;97767.75;6280962;20;2756526;-42
2024/02/10 09:13:03;;;;;;;;;5.50;4.00;;;;;16.63;52.75;97772.06;6283479;20;2743053;-41
2024/02/10 09:15:33;;;;;;;;;3.00;3.00;;;;;16.85;52.17;97773.13;6284459;20;2756560;-40
2024/02/10 09:18:01;;;;;;;;;5.00;2.50;;;;;16.57;52.79;97779.06;6282576;20;2751384;-40
2024/02/10 09:20:31;;;;;;;;;5.00;3.50;;;;;16.49;52.44;97783.69;6282483;20;2742052;-40
2024/02/10 09:22:59;;;;;;;;;5.00;3.00;;;;;16.72;51.34;97787.28;6279230;20;2748286;-40
2024/02/10 09:25:27;;;;;;;;;6.50;4.00;;;;;16.98;51.14;97796.91;6283650;20;2747154;-41
2024/02/10 09:28:29;;;;;;;;;7.00;4.00;;;;;17.12;51.08;97788.00;6285029;20;2752457;-40
2024/02/10 09:30:57;;;;;;;;;7.00;4.00;;;;;17.13;50.26;97799.69;6277845;20;2749261;-40
2024/02/10 09:33:26;;;;;;;;;5.00;3.00;;;;;17.53;49.94;97795.75;6281893;20;2756550;-40
2024/02/10 09:35:54;;;;;;;;;5.00;4.00;;;;;17.24;49.51;97793.81;6285558;20;2748241;-40
2024/02/10 09:38:22;;;;;;;;;4.00;4.00;;;;;17.22;50.21;97794.00;6283580;20;2754622;-40
2024/02/10 09:40:56;;;;;;;;;3.00;3.00;;;;;17.16;50.61;97789.31;6284305;20;2738840;-41
2024/02/10 09:43:32;;;;;;;;;4.00;4.00;;;;;17.10;50.33;97793.59;6280283;20;2741978;-41
2024/02/10 09:46:10;;;;;;;;;4.50;4.50;;;;;17.08;49.67;97792.09;6278310;20;2746156;-41
2024/02/10 09:48:44;;;;;;;;;2.00;2.00;;;;;17.13;50.74;97795.09;6283608;20;2744055;-41
2024/02/10 09:51:13;;;;;;;;;3.00;3.00;;;;;17.26;50.51;97800.75;6284529;20;2754592;-39
2024/02/10 09:53:43;;;;;;;;;4.20;4.00;;;;;17.01;51.11;97804.69;6301865;20;2746229;-40
2024/02/10 09:56:13;;;;;;;;;4.00;4.00;;;;;17.52;49.85;97802.19;6276520;20;2756674;-40
2024/02/10 09:58:49;;;;;;;;;4.00;3.00;;;;;17.30;49.75;97801.25;6286245;20;2731700;-41
2024/02/10 10:01:18;;;;;;;;;4.00;4.00;;;;;17.55;49.45;97797.25;6278267;20;2751373;-41
2024/02/10 10:03:48;;;;;;;;;6.50;4.00;;;;;17.31;49.66;97801.03;6280096;20;2754447;-40
2024/02/10 10:06:23;;;;;;;;;6.50;4.50;;;;;17.66;48.72;97801.38;6280943;20;2743436;-40
2024/02/10 10:08:51;;;;;;;;;6.00;5.00;;;;;17.82;48.42;97810.41;6281726;20;2754627;-44
2024/02/10 10:11:22;;;;;;;;;5.00;4.00;;;;;17.63;48.64;97807.16;6281827;20;2750352;-41
2024/02/10 10:13:50;;;;;;;;;4.00;3.00;;;;;17.38;48.53;97814.72;6279044;20;2752356;-42
2024/02/10 10:16:18;;;;;;;;;8.00;4.00;;;;;17.49;48.22;97803.41;6283573;20;2754552;-42
2024/02/10 10:18:55;;;;;;;;;5.00;5.00;;;;;17.65;48.44;97804.28;6283475;20;2749290;-41
2024/02/10 10:21:25;;;;;;;;;3.00;3.00;;;;;17.69;48.81;97803.72;6284058;20;2728482;-41
2024/02/10 10:23:55;;;;;;;;;3.50;2.00;;;;;17.24;49.14;97796.53;6282761;20;2738879;-42
2024/02/10 10:26:26;;;;;;;;;5.60;2.00;;;;;18.00;48.33;97791.84;6306094;20;2756603;-43
2024/02/10 10:28:55;;;;;;;;;5.50;4.00;;;;;17.87;48.97;97797.09;6277289;20;2746207;-42
2024/02/10 10:31:24;;;;;;;;;5.00;5.00;;;;;18.01;48.87;97792.69;6281596;20;2748283;-42
2024/02/10 10:33:52;;;;;;;;;6.50;4.00;;;;;17.29;49.91;97789.53;6273795;20;2751395;-41
2024/02/10 10:36:22;;;;;;;;;4.00;2.50;;;;;17.52;49.11;97784.03;6281032;20;2748324;-40
2024/02/10 10:38:53;;;;;;;;;5.00;5.00;;;;;17.68;49.96;97791.16;6280130;20;2744101;-43
2024/02/10 10:41:23;;;;;;;;;5.00;5.00;;;;;18.12;48.92;97784.94;6278985;20;2740016;-51
2024/02/10 10:43:51;;;;;;;;;5.50;4.00;;;;;17.70;49.70;97785.56;6279046;20;2746148;-41
2024/02/10 10:46:21;;;;;;;;;4.50;3.50;;;;;18.07;48.26;97790.09;6278577;20;2744026;-42
2024/02/10 10:48:49;;;;;;;;;3.50;3.50;;;;;17.59;49.03;97784.16;6280156;20;2756613;-44
2024/02/10 10:51:22;;;;;;;;;6.20;3.00;;;;;17.75;48.35;97778.53;6302788;20;2750304;-42
2024/02/10 10:53:52;;;;;;;;;3.40;3.20;;;;;17.36;49.16;97778.78;6330773;20;2736788;-42
2024/02/10 10:56:24;;;;;;;;;3.80;3.80;;;;;17.39;49.85;97770.28;6330513;20;2739915;-41
2024/02/10 10:59:01;;;;;;;;;7.50;4.00;;;;;17.46;49.44;97778.53;6312019;20;2750799;-43
2024/02/10 11:01:31;;;;;;;;;5.00;3.00;;;;;17.68;49.64;97777.59;6276977;20;2751328;-42
2024/02/10 11:04:01;;;;;;;;;2.50;2.00;;;;;17.62;49.44;97772.94;6279236;20;2744078;-42
2024/02/10 11:06:32;;;;;;;;;5.00;3.00;;;;;17.10;50.12;97773.78;6283347;20;2746161;-45
2024/02/10 11:09:04;;;;;;;;;7.60;4.00;;;;;17.49;49.82;97778.16;6301889;20;2752445;-43
2024/02/10 11:11:41;;;;;;;;;9.80;5.80;;;;;17.52;49.03;97761.50;6300897;20;2758654;-41
2024/02/10 11:14:12;;;;;;;;;3.00;3.00;;;;;17.13;49.88;97762.56;6273859;20;2735721;-43
2024/02/10 11:16:43;;;;;;;;;7.00;3.50;;;;;16.88;50.60;97760.06;6281060;20;2752386;-42
2024/02/10 11:19:12;;;;;;;;;5.50;4.00;;;;;16.87;50.71;97761.06;6277737;20;2754454;-42